Time;durP1;ratioP1;P1;durP2;ratioP2;P2;SDS_P1;SDS_P2;PMS_P1;PMS_P2;Temp;Humidity;BMP_temperature;BMP_pressure;BME280_temperature;BME280_humidity;BME280_pressure;Samples;Min_cycle;Max_cycle;Signal;HPM_P1;HPM_P2
2022/06/27 00:01:26;;;;;;;3.50;1.92;;;;;;;27.71;36.10;96829.41;5094016;28;20024;-35
2022/06/27 00:03:52;;;;;;;3.65;1.95;;;;;;;27.69;35.81;96827.19;5093749;28;20028;-34
2022/06/27 00:06:21;;;;;;;4.80;2.05;;;;;;;27.74;35.62;96828.34;5093731;28;20031;-35
2022/06/27 00:08:50;;;;;;;7.47;1.83;;;;;;;27.68;35.65;96827.72;5093096;28;20468;-36
2022/06/27 00:11:18;;;;;;;4.70;1.58;;;;;;;27.66;35.90;96824.69;5093679;28;20028;-35
2022/06/27 00:13:43;;;;;;;4.13;1.70;;;;;;;27.66;35.73;96830.28;5092295;28;20035;-34
2022/06/27 00:16:09;;;;;;;4.07;1.63;;;;;;;27.67;35.85;96815.81;5093571;28;20028;-34
2022/06/27 00:18:35;;;;;;;4.75;1.88;;;;;;;27.72;35.63;96822.56;5092302;28;20032;-35
2022/06/27 00:21:01;;;;;;;4.75;1.55;;;;;;;27.69;35.91;96813.25;5092343;28;20452;-34
2022/06/27 00:23:26;;;;;;;4.90;2.17;;;;;;;27.68;35.51;96811.00;5093741;28;20024;-35
2022/06/27 00:25:53;;;;;;;5.03;1.77;;;;;;;27.67;35.74;96807.44;5093662;28;20031;-35
2022/06/27 00:28:19;;;;;;;4.40;1.70;;;;;;;27.64;35.74;96816.88;5092187;28;20035;-35
2022/06/27 00:30:44;;;;;;;5.05;2.17;;;;;;;27.64;35.10;96816.13;5093440;28;20020;-35
2022/06/27 00:33:10;;;;;;;8.27;1.90;;;;;;;27.64;35.74;96807.75;5093488;28;20085;-34
2022/06/27 00:35:35;;;;;;;6.25;2.15;;;;;;;27.63;35.52;96815.34;5092026;28;20020;-35
2022/06/27 00:38:01;;;;;;;4.80;1.58;;;;;;;27.61;35.21;96811.59;5093465;28;20024;-34
2022/06/27 00:40:26;;;;;;;5.90;1.75;;;;;;;27.60;35.28;96816.41;5093355;28;20024;-35
2022/06/27 00:42:52;;;;;;;7.68;1.90;;;;;;;27.62;35.29;96801.94;5093732;28;20027;-35
2022/06/27 00:45:17;;;;;;;4.15;1.90;;;;;;;27.62;35.32;96801.94;5093294;28;20020;-34
2022/06/27 00:47:44;;;;;;;4.85;1.83;;;;;;;27.61;34.89;96806.03;5093555;28;20024;-36
2022/06/27 00:50:09;;;;;;;7.10;2.33;;;;;;;27.60;35.10;96816.41;5093331;28;20034;-35
2022/06/27 00:52:35;;;;;;;6.18;2.10;;;;;;;27.60;35.03;96798.94;5093198;28;20094;-34
2022/06/27 00:55:01;;;;;;;5.88;1.90;;;;;;;27.59;35.66;96803.00;5093303;28;20471;-34
2022/06/27 00:57:28;;;;;;;5.43;1.90;;;;;;;27.59;35.15;96803.75;5093131;28;20047;-34
2022/06/27 00:59:54;;;;;;;4.82;1.85;;;;;;;27.61;35.41;96803.22;5093374;28;20472;-35
2022/06/27 01:02:19;;;;;;;6.40;2.13;;;;;;;27.62;34.97;96790.81;5092925;28;20032;-35
2022/06/27 01:04:45;;;;;;;6.63;1.92;;;;;;;27.59;35.43;96791.88;5093241;28;20020;-35
2022/06/27 01:07:12;;;;;;;4.32;1.92;;;;;;;27.58;35.12;96795.94;5093367;28;20478;-35
2022/06/27 01:09:39;;;;;;;4.93;1.92;;;;;;;27.56;35.09;96784.59;5093056;28;20118;-35
2022/06/27 01:12:05;;;;;;;6.85;2.13;;;;;;;27.58;35.04;96793.91;5093474;28;20539;-35
2022/06/27 01:14:31;;;;;;;6.80;2.13;;;;;;;27.59;35.29;96791.88;5110522;28;20020;-35
2022/06/27 01:16:57;;;;;;;4.68;2.05;;;;;;;27.58;35.14;96782.00;5112177;28;20076;-35
2022/06/27 01:19:22;;;;;;;6.78;1.92;;;;;;;27.58;35.19;96793.91;5112348;28;20020;-35
2022/06/27 01:21:53;;;;;;;4.28;2.05;;;;;;;27.56;34.88;96788.13;5116235;28;20051;-35
2022/06/27 01:24:21;;;;;;;5.55;2.53;;;;;;;27.61;34.81;96797.66;5115884;28;20035;-34
2022/06/27 01:26:48;;;;;;;5.05;1.67;;;;;;;27.58;35.08;96784.78;5117125;28;20027;-36
2022/06/27 01:29:14;;;;;;;6.03;2.10;;;;;;;27.54;34.85;96785.84;5116961;28;20024;-34
2022/06/27 01:31:40;;;;;;;3.92;2.00;;;;;;;27.53;34.95;96784.34;5116967;28;20110;-35
2022/06/27 01:34:07;;;;;;;7.13;2.00;;;;;;;27.55;34.55;96786.59;5117107;28;20543;-34
2022/06/27 01:36:42;;;;;;;5.88;2.20;;;;;;;27.58;34.96;96784.78;5117009;27;20023;-35
2022/06/27 01:39:22;;;;;;;4.28;1.80;;;;;;;27.56;35.10;96784.59;5116682;28;20023;-35
2022/06/27 01:41:53;;;;;;;5.03;1.75;;;;;;;27.56;35.17;96777.00;5116748;28;20464;-34
2022/06/27 01:44:20;;;;;;;4.70;1.75;;;;;;;27.55;34.71;96775.47;5116752;28;20024;-35
2022/06/27 01:46:59;;;;;;;6.30;2.25;;;;;;;27.57;35.09;96772.16;5117133;27;20076;-35
2022/06/27 01:49:25;;;;;;;7.15;2.55;;;;;;;27.58;35.12;96768.06;5116768;28;20152;-35
2022/06/27 01:51:52;;;;;;;4.72;2.33;;;;;;;27.54;34.78;96769.13;5116580;27;20464;-35
2022/06/27 01:54:21;;;;;;;5.30;1.90;;;;;;;27.59;34.89;96761.22;5116531;28;20023;-34
2022/06/27 01:56:54;;;;;;;10.57;2.30;;;;;;;27.56;34.90;96751.16;5116290;28;20384;-34
2022/06/27 01:59:30;;;;;;;4.72;1.70;;;;;;;27.49;34.64;96747.69;5116544;28;20041;-35
2022/06/27 02:01:58;;;;;;;6.88;1.95;;;;;;;27.50;34.79;96742.88;5115548;28;20088;-35
2022/06/27 02:04:25;;;;;;;8.35;1.98;;;;;;;27.52;34.89;96726.38;5116745;28;20485;-34
2022/06/27 02:06:51;;;;;;;3.92;1.63;;;;;;;27.52;34.97;96724.34;5116151;28;20031;-35
2022/06/27 02:09:18;;;;;;;4.20;1.92;;;;;;;27.51;34.88;96725.63;5116271;28;20517;-35
2022/06/27 02:11:46;;;;;;;7.53;2.03;;;;;;;27.48;34.89;96754.53;5116366;28;20058;-35
2022/06/27 02:14:12;;;;;;;5.15;2.30;;;;;;;27.44;34.74;96759.69;5116222;28;20376;-34
2022/06/27 02:16:39;;;;;;;7.60;2.03;;;;;;;27.45;34.79;96761.16;5116041;28;20076;-35
2022/06/27 02:19:06;;;;;;;6.72;2.28;;;;;;;27.47;34.89;96758.59;5116187;28;20030;-34
2022/06/27 02:21:32;;;;;;;4.43;2.17;;;;;;;27.49;34.83;96753.25;5116440;28;20019;-35
2022/06/27 02:23:57;;;;;;;4.70;2.13;;;;;;;27.51;34.85;96753.47;5115880;28;20068;-35
2022/06/27 02:26:26;;;;;;;5.95;1.85;;;;;;;27.49;34.84;96764.41;5115976;28;20034;-34
2022/06/27 02:28:54;;;;;;;5.30;1.70;;;;;;;27.51;34.87;96761.06;5114870;28;20161;-34
2022/06/27 02:31:20;;;;;;;4.07;1.90;;;;;;;27.49;34.84;96735.78;5115351;28;20027;-34
2022/06/27 02:33:48;;;;;;;5.20;1.90;;;;;;;27.49;35.13;96707.94;5114529;28;20034;-35
2022/06/27 02:36:21;;;;;;;6.20;1.80;;;;;;;27.48;34.65;96714.78;5115890;28;20030;-35
2022/06/27 02:38:54;;;;;;;;;;;;;;;27.49;34.29;96739.31;5116186;28;20034;-35
2022/06/27 02:41:20;;;;;;;9.82;2.70;;;;;;;27.40;35.02;96761.25;5115877;28;19915;-34
2022/06/27 02:43:51;;;;;;;7.93;2.30;;;;;;;27.49;34.22;96777.56;5115969;28;20118;-34
2022/06/27 02:46:19;;;;;;;7.00;2.40;;;;;;;27.45;34.84;96772.31;5114468;28;20020;-34
2022/06/27 02:48:48;;;;;;;6.20;2.13;;;;;;;27.45;34.45;96769.50;5115593;28;20048;-34
2022/06/27 02:51:19;;;;;;;6.63;2.00;;;;;;;27.47;34.90;96769.75;5115594;28;20026;-35
2022/06/27 02:54:15;;;;;;;6.22;1.88;;;;;;;27.49;34.43;96761.59;5115350;28;20483;-35
2022/06/27 02:56:49;;;;;;;5.05;1.90;;;;;;;27.47;34.79;96761.38;5097624;28;20046;-34
2022/06/27 02:59:23;;;;;;;6.22;2.20;;;;;;;27.46;34.81;96768.22;5115384;28;20047;-35
2022/06/27 03:01:49;;;;;;;6.85;2.00;;;;;;;27.43;34.62;96769.31;5115305;28;20023;-34
2022/06/27 03:04:15;;;;;;;6.88;2.30;;;;;;;27.45;34.68;96774.34;5115046;28;20472;-35
2022/06/27 03:06:43;;;;;;;5.82;2.20;;;;;;;27.44;34.79;96779.19;5115690;28;20059;-35
2022/06/27 03:09:09;;;;;;;3.65;1.67;;;;;;;27.43;34.93;96772.09;5115014;27;20073;-35
2022/06/27 03:11:35;;;;;;;6.45;2.50;;;;;;;27.44;34.63;96776.41;5113772;28;20023;-34
2022/06/27 03:14:00;;;;;;;8.75;2.17;;;;;;;27.46;34.77;96775.84;5115126;28;20055;-34
2022/06/27 03:16:26;;;;;;;6.35;2.00;;;;;;;27.45;34.81;96771.53;5115203;28;20039;-36
2022/06/27 03:18:54;;;;;;;5.30;2.33;;;;;;;27.42;34.37;96775.41;5113745;28;20054;-34
2022/06/27 03:21:20;;;;;;;5.80;2.15;;;;;;;27.43;34.94;96788.81;5115037;28;20032;-34
2022/06/27 03:23:47;;;;;;;6.75;2.40;;;;;;;27.46;34.88;96782.16;5114714;28;20049;-35
2022/06/27 03:26:15;;;;;;;5.93;2.13;;;;;;;27.46;34.46;96778.63;5113589;28;20167;-35
2022/06/27 03:28:41;;;;;;;4.68;1.92;;;;;;;27.45;34.50;96777.88;5113559;28;20028;-35
2022/06/27 03:31:07;;;;;;;6.75;2.05;;;;;;;27.44;34.83;96781.22;5114596;28;20368;-35
2022/06/27 03:33:32;;;;;;;5.22;2.00;;;;;;;27.43;34.76;96776.91;5113410;28;20023;-36
2022/06/27 03:35:58;;;;;;;4.70;2.05;;;;;;;27.41;34.70;96788.59;5114600;28;20102;-35
2022/06/27 03:38:23;;;;;;;6.28;2.28;;;;;;;27.42;34.64;96784.53;5114660;28;20028;-35
2022/06/27 03:40:49;;;;;;;5.45;2.15;;;;;;;27.42;34.49;96783.78;5113254;28;20023;-35
2022/06/27 03:43:15;;;;;;;5.43;2.20;;;;;;;27.42;34.43;96778.19;5113161;28;20024;-35
2022/06/27 03:45:40;;;;;;;6.03;1.85;;;;;;;27.41;34.76;96773.91;5114547;28;20020;-36
2022/06/27 03:48:07;;;;;;;5.63;2.55;;;;;;;27.38;34.53;96764.59;5114670;28;20023;-35
2022/06/27 03:50:34;;;;;;;4.38;1.90;;;;;;;27.39;34.34;96762.53;5114928;28;20026;-35
2022/06/27 03:53:00;;;;;;;7.30;2.40;;;;;;;27.37;34.80;96765.84;5114256;28;20126;-35
2022/06/27 03:55:26;;;;;;;6.55;2.20;;;;;;;27.41;34.69;96766.31;5114296;28;20515;-35
2022/06/27 03:57:54;;;;;;;6.97;2.08;;;;;;;27.40;34.23;96764.81;5114043;28;20047;-34
2022/06/27 04:00:22;;;;;;;7.97;2.20;;;;;;;27.41;34.24;96766.31;5114193;28;20084;-35
2022/06/27 04:02:49;;;;;;;8.65;2.47;;;;;;;27.41;34.75;96769.09;5114482;28;20387;-35
2022/06/27 04:05:14;;;;;;;7.22;2.30;;;;;;;27.40;34.81;96762.03;5114012;28;20024;-35
2022/06/27 04:07:40;;;;;;;5.50;2.17;;;;;;;27.41;34.37;96762.78;5114254;28;20068;-34
2022/06/27 04:10:10;;;;;;;5.85;2.20;;;;;;;27.39;34.79;96763.28;5114076;28;20030;-35
2022/06/27 04:12:36;;;;;;;7.45;2.08;;;;;;;27.38;34.57;96761.78;5114015;28;20027;-35
2022/06/27 04:15:03;;;;;;;6.00;2.15;;;;;;;27.37;34.74;96771.44;5113946;28;20024;-34
2022/06/27 04:17:29;;;;;;;6.13;2.00;;;;;;;27.41;34.40;96769.09;5114104;28;20020;-34
2022/06/27 04:19:55;;;;;;;5.03;2.00;;;;;;;27.42;34.35;96762.25;5113853;28;20035;-34
2022/06/27 04:22:21;;;;;;;8.63;2.08;;;;;;;27.41;34.86;96763.53;5113847;28;20019;-35
2022/06/27 04:24:47;;;;;;;4.63;2.10;;;;;;;27.36;34.73;96769.16;5113814;28;20383;-35
2022/06/27 04:27:17;;;;;;;6.95;2.22;;;;;;;27.35;34.51;96776.78;5113982;28;20034;-34
2022/06/27 04:29:43;;;;;;;6.97;2.03;;;;;;;27.33;34.37;96773.75;5113819;28;20091;-36
2022/06/27 04:32:09;;;;;;;5.18;2.17;;;;;;;27.37;34.46;96768.66;5113700;28;20027;-34
2022/06/27 04:34:36;;;;;;;6.90;2.20;;;;;;;27.36;34.38;96772.72;5114223;28;20015;-35
2022/06/27 04:37:03;;;;;;;5.38;2.15;;;;;;;27.36;34.48;96764.34;5113762;28;20034;-35
2022/06/27 04:39:30;;;;;;;6.18;2.05;;;;;;;27.37;34.42;96773.47;5113764;28;20027;-34
2022/06/27 04:41:56;;;;;;;8.43;2.00;;;;;;;27.37;34.89;96773.47;5113790;28;20023;-35
2022/06/27 04:44:21;;;;;;;5.78;2.35;;;;;;;27.37;34.44;96782.56;5113720;28;20031;-35
2022/06/27 04:46:47;;;;;;;5.28;2.00;;;;;;;27.35;34.55;96779.56;5113690;28;20097;-35
2022/06/27 04:49:14;;;;;;;8.00;2.45;;;;;;;27.31;34.96;96781.91;5113626;28;20059;-34
2022/06/27 04:51:41;;;;;;;7.07;1.90;;;;;;;27.32;35.02;96780.63;5113759;28;20081;-35
2022/06/27 04:54:10;;;;;;;9.18;2.90;;;;;;;27.37;35.04;96787.38;5113462;28;20019;-34
2022/06/27 04:56:39;;;;;;;6.80;2.40;;;;;;;27.34;34.53;96800.34;5126454;27;20027;-33
2022/06/27 04:59:05;;;;;;;6.35;2.67;;;;;;;27.34;34.57;96789.19;5095466;28;20028;-36
2022/06/27 05:01:31;;;;;;;8.05;2.20;;;;;;;27.35;34.76;96787.91;5108898;27;20023;-35
2022/06/27 05:03:56;;;;;;;6.07;2.08;;;;;;;27.35;35.08;96792.72;5136383;27;20030;-35
2022/06/27 05:06:22;;;;;;;4.20;1.85;;;;;;;27.34;35.08;96783.63;5136364;27;20027;-35
2022/06/27 05:08:47;;;;;;;8.07;2.20;;;;;;;27.34;34.88;96782.88;5136053;27;20114;-35
2022/06/27 05:11:14;;;;;;;7.95;2.15;;;;;;;27.36;34.78;96792.22;5136272;27;20067;-34
2022/06/27 05:13:40;;;;;;;6.15;2.25;;;;;;;27.38;34.73;96795.22;5129600;27;20047;-34
2022/06/27 05:16:05;;;;;;;3.97;1.95;;;;;;;27.36;35.01;96797.78;5115541;28;20255;-35
2022/06/27 05:18:31;;;;;;;5.40;1.98;;;;;;;27.35;35.05;96792.72;5113409;28;20035;-35
2022/06/27 05:20:56;;;;;;;7.25;2.30;;;;;;;27.36;35.16;96788.66;5115433;28;20038;-35
2022/06/27 05:23:22;;;;;;;6.28;2.30;;;;;;;27.37;34.60;96792.97;5115215;28;20023;-35
2022/06/27 05:25:47;;;;;;;4.68;2.10;;;;;;;27.38;34.56;96792.44;5115210;28;20016;-35
2022/06/27 05:28:13;;;;;;;8.60;2.03;;;;;;;27.35;34.86;96789.94;5115467;28;20031;-35
2022/06/27 05:30:38;;;;;;;6.78;2.20;;;;;;;27.31;34.78;96795.84;5115040;28;20088;-35
2022/06/27 05:33:04;;;;;;;11.85;2.83;;;;;;;27.31;33.52;96793.06;5113897;28;20499;-35
2022/06/27 05:35:30;;;;;;;6.90;2.40;;;;;;;27.39;33.29;96805.06;5115265;28;20458;-34
2022/06/27 05:37:56;;;;;;;11.25;2.53;;;;;;;27.40;33.54;96808.63;5115126;28;20095;-34
2022/06/27 05:40:22;;;;;;;6.78;2.15;;;;;;;27.40;34.23;96803.78;5114861;28;20023;-34
2022/06/27 05:42:49;;;;;;;10.27;2.60;;;;;;;27.37;34.12;96799.28;5114759;28;20027;-35
2022/06/27 05:45:15;;;;;;;7.93;2.30;;;;;;;27.37;34.02;96816.00;5115057;28;20027;-34
2022/06/27 05:47:42;;;;;;;7.07;2.42;;;;;;;27.37;34.64;96815.25;5114794;28;20027;-35
2022/06/27 05:50:08;;;;;;;6.25;1.95;;;;;;;27.39;34.20;96818.25;5120888;27;20371;-35
2022/06/27 05:52:35;;;;;;;6.18;2.30;;;;;;;27.40;34.63;96819.75;5135645;27;20023;-34
2022/06/27 05:55:02;;;;;;;11.00;2.97;;;;;;;27.42;34.18;96823.53;5135213;27;20039;-35
2022/06/27 05:57:28;;;;;;;10.55;2.50;;;;;;;27.46;34.33;96823.94;5135014;27;20051;-34
2022/06/27 05:59:55;;;;;;;6.88;2.38;;;;;;;27.44;33.61;96832.09;5135353;27;20031;-35
2022/06/27 06:02:23;;;;;;;6.75;2.00;;;;;;;27.48;33.90;96834.56;5135155;27;20030;-35
2022/06/27 06:04:50;;;;;;;10.30;2.40;;;;;;;27.44;34.62;96826.53;5134968;27;20114;-35
2022/06/27 06:07:16;;;;;;;12.63;2.83;;;;;;;27.46;34.11;96832.31;5133719;27;20038;-35
2022/06/27 06:09:46;;;;;;;10.00;2.55;;;;;;;27.47;33.87;96828.22;5135036;27;20030;-35
2022/06/27 06:12:12;;;;;;;12.80;2.90;;;;;;;27.41;33.75;96821.25;5134853;27;20027;-35
2022/06/27 06:14:39;;;;;;;12.52;2.60;;;;;;;27.44;33.79;96825.78;5134929;27;20030;-35
2022/06/27 06:17:05;;;;;;;8.85;2.17;;;;;;;27.51;34.22;96828.69;5134822;27;20023;-35
2022/06/27 06:19:32;;;;;;;12.20;2.67;;;;;;;27.52;33.74;96832.22;5132856;27;20455;-34
2022/06/27 06:21:58;;;;;;;11.82;2.45;;;;;;;27.48;34.21;96835.31;5134844;27;20387;-35
2022/06/27 06:24:24;;;;;;;14.07;2.28;;;;;;;27.51;34.17;96844.66;5134706;27;20030;-35
2022/06/27 06:26:56;;;;;;;11.63;2.72;;;;;;;27.49;33.84;96845.19;5134850;27;20046;-36
2022/06/27 06:29:23;;;;;;;11.70;2.47;;;;;;;27.50;34.02;96848.72;5134804;27;20091;-36
2022/06/27 06:31:49;;;;;;;10.13;2.40;;;;;;;27.49;34.30;96852.78;5134548;27;20043;-35
2022/06/27 06:34:16;;;;;;;12.85;2.25;;;;;;;27.51;34.25;96839.84;5134635;27;20050;-35
2022/06/27 06:36:44;;;;;;;11.27;1.77;;;;;;;27.48;34.27;96842.91;5134452;27;20031;-35
2022/06/27 06:39:10;;;;;;;8.25;2.40;;;;;;;27.46;34.46;96851.81;5134422;27;20050;-34
2022/06/27 06:41:37;;;;;;;12.30;2.58;;;;;;;27.44;34.24;96853.63;5134526;27;20035;-36
2022/06/27 06:44:07;;;;;;;11.10;2.05;;;;;;;27.41;34.18;96849.88;5134193;27;20042;-35
2022/06/27 06:46:33;;;;;;;7.55;2.33;;;;;;;27.41;34.28;96863.03;5134420;27;20019;-34
2022/06/27 06:49:02;;;;;;;8.32;2.25;;;;;;;27.45;34.49;96853.06;5134323;27;20038;-35
2022/06/27 06:51:31;;;;;;;7.38;2.40;;;;;;;27.47;34.67;96841.41;5116888;27;20023;-35
2022/06/27 06:53:57;;;;;;;10.70;2.30;;;;;;;27.48;34.39;96849.25;5113672;28;20085;-36
2022/06/27 06:56:22;;;;;;;7.47;2.15;;;;;;;27.46;34.90;96840.66;5113437;28;20031;-35
2022/06/27 06:58:48;;;;;;;9.50;2.25;;;;;;;27.46;34.69;96851.81;5113393;28;20062;-35
2022/06/27 07:01:14;;;;;;;8.85;2.53;;;;;;;27.42;33.93;96861.75;5113502;28;20046;-35
2022/06/27 07:03:39;;;;;;;5.43;2.35;;;;;;;27.45;34.49;96858.66;5113557;28;20394;-36
2022/06/27 07:06:05;;;;;;;6.85;2.40;;;;;;;27.35;34.52;96865.13;5113289;28;20073;-35
2022/06/27 07:08:32;;;;;;;8.73;2.17;;;;;;;27.48;34.39;96854.81;5112668;28;20034;-34
2022/06/27 07:10:58;;;;;;;8.10;2.38;;;;;;;27.52;34.93;96860.84;5113277;28;20429;-35
2022/06/27 07:13:24;;;;;;;6.95;2.28;;;;;;;27.54;34.72;96855.50;5113318;28;20084;-36
2022/06/27 07:15:51;;;;;;;8.93;2.22;;;;;;;27.53;34.64;96858.81;5113448;28;20019;-35
2022/06/27 07:18:17;;;;;;;6.88;2.20;;;;;;;27.54;34.48;96860.31;5111110;28;20047;-36
2022/06/27 07:20:43;;;;;;;10.68;2.38;;;;;;;27.57;33.84;96864.09;5113004;28;20051;-35
2022/06/27 07:23:11;;;;;;;13.57;3.08;;;;;;;27.60;33.50;96857.44;5113001;28;20020;-35
2022/06/27 07:25:37;;;;;;;11.30;2.80;;;;;;;27.58;33.00;96860.00;5112984;28;20074;-35
2022/06/27 07:28:04;;;;;;;9.23;2.28;;;;;;;27.56;33.70;96859.81;5112968;28;20047;-35
2022/06/27 07:30:30;;;;;;;12.73;2.50;;;;;;;27.53;34.16;96861.59;5111575;28;20039;-35
2022/06/27 07:32:56;;;;;;;11.05;2.75;;;;;;;27.53;33.77;96861.59;5112745;28;20027;-35
2022/06/27 07:35:22;;;;;;;10.15;2.75;;;;;;;27.51;33.58;96855.78;5112925;28;20084;-36
2022/06/27 07:37:48;;;;;;;20.35;2.90;;;;;;;27.56;33.83;96860.56;5112901;28;20024;-35
2022/06/27 07:40:19;;;;;;;13.55;3.10;;;;;;;27.51;34.08;96853.75;5112834;28;20429;-34
2022/06/27 07:42:47;;;;;;;10.70;3.05;;;;;;;27.59;33.55;96858.72;5112537;28;20043;-35
2022/06/27 07:45:16;;;;;;;14.05;2.63;;;;;;;27.57;33.69;96845.34;5111195;28;20028;-35
2022/06/27 07:47:46;;;;;;;12.90;2.85;;;;;;;27.49;32.92;96822.88;5112621;28;20024;-35
2022/06/27 07:50:36;;;;;;;15.88;3.83;;;;;;;27.46;33.04;96823.94;5118997;27;20023;-34
2022/06/27 07:53:14;;;;;;;14.82;3.45;;;;;;;27.45;32.38;96816.13;5133061;27;20035;-35
2022/06/27 07:55:55;;;;;;;22.33;3.43;;;;;;;27.65;31.33;96815.59;5132597;27;20030;-32
2022/06/27 07:58:30;;;;;;;33.08;4.68;;;;;;;28.01;29.54;96809.66;5132122;27;20047;-33
2022/06/27 08:00:57;;;;;;;21.88;3.65;;;;;;;28.01;29.51;96804.06;5132634;27;20031;-33
2022/06/27 08:06:12;;;;;;;15.43;3.20;;;;;;;27.51;30.54;96811.97;5132970;27;20034;-35
2022/06/27 08:08:42;;;;;;;18.88;4.18;;;;;;;27.64;30.92;96816.13;5132846;27;20431;-35
2022/06/27 08:11:15;;;;;;;18.23;3.42;;;;;;;27.69;31.07;96816.03;5132887;27;20022;-36
2022/06/27 08:13:41;;;;;;;15.40;3.40;;;;;;;27.74;31.13;96803.28;5133025;27;20126;-35
2022/06/27 08:16:08;;;;;;;31.55;4.10;;;;;;;27.52;31.00;96813.47;5131527;27;20027;-35
2022/06/27 08:18:38;;;;;;;17.88;3.83;;;;;;;27.54;31.30;96810.91;5131271;27;20019;-35
2022/06/27 08:21:05;;;;;;;21.50;4.15;;;;;;;27.56;31.13;96809.66;5133084;27;20019;-34
2022/06/27 08:23:31;;;;;;;21.05;4.10;;;;;;;27.68;30.96;96816.56;5121136;27;20062;-35
2022/06/27 08:25:58;;;;;;;19.45;4.13;;;;;;;27.53;31.04;96817.78;5112899;28;20066;-35
2022/06/27 08:28:26;;;;;;;21.83;3.55;;;;;;;27.62;30.44;96821.47;5112620;28;20027;-35
2022/06/27 08:30:52;;;;;;;23.63;4.55;;;;;;;27.49;30.91;96822.88;5113210;28;20026;-35
2022/06/27 08:33:18;;;;;;;24.88;4.53;;;;;;;27.43;30.08;96825.03;5113867;28;20024;-35
2022/06/27 08:35:47;;;;;;;24.23;3.97;;;;;;;27.56;30.42;96843.09;5113794;28;20046;-35
2022/06/27 08:38:15;;;;;;;29.63;4.60;;;;;;;27.48;29.63;96829.00;5113860;28;20016;-35
2022/06/27 08:40:41;;;;;;;22.98;4.43;;;;;;;27.52;29.96;96835.00;5113698;28;20015;-35
2022/06/27 08:43:10;;;;;;;25.17;3.90;;;;;;;27.46;29.95;96835.09;5113901;28;20439;-34
2022/06/27 08:45:35;;;;;;;27.67;4.63;;;;;;;27.51;28.80;96825.91;5113735;28;20020;-35
2022/06/27 08:48:07;;;;;;;19.92;3.60;;;;;;;27.56;28.92;96832.72;5113912;28;20026;-35
2022/06/27 08:50:36;;;;;;;17.60;4.00;;;;;;;27.51;30.14;96837.03;5113877;28;20035;-35
2022/06/27 08:53:04;;;;;;;18.13;4.05;;;;;;;27.48;29.65;96820.63;5113792;28;20024;-35
2022/06/27 08:55:33;;;;;;;19.13;4.00;;;;;;;27.36;29.77;96825.63;5113726;28;20030;-36
2022/06/27 08:58:03;;;;;;;26.52;4.40;;;;;;;27.56;29.47;96840.31;5113792;28;20480;-35
2022/06/27 09:00:30;;;;;;;33.22;4.70;;;;;;;27.42;29.65;96836.69;5113663;28;20028;-35
2022/06/27 09:02:55;;;;;;;21.80;3.90;;;;;;;27.47;30.39;96824.69;5113556;28;20023;-36
2022/06/27 09:05:26;;;;;;;27.08;4.43;;;;;;;27.36;29.49;96808.16;5113469;28;20388;-35
2022/06/27 09:07:59;;;;;;;26.50;4.05;;;;;;;27.35;29.27;96807.41;5113493;28;20030;-35
2022/06/27 09:10:32;;;;;;;18.05;3.95;;;;;;;27.42;29.38;96801.25;5113680;28;20016;-34
2022/06/27 09:13:02;;;;;;;23.23;3.83;;;;;;;27.58;29.05;96818.22;5113479;28;20023;-35
2022/06/27 09:15:57;;;;;;;21.42;4.38;;;;;;;27.52;29.79;96798.78;5113439;28;20016;-35
2022/06/27 09:18:28;;;;;;;22.10;4.40;;;;;;;27.44;29.82;96789.56;5112226;28;20026;-35
2022/06/27 09:20:55;;;;;;;19.83;4.03;;;;;;;27.46;28.83;96795.34;5113426;28;20023;-35
2022/06/27 09:23:54;;;;;;;22.77;5.07;;;;;;;27.64;29.97;96824.47;5113397;28;20028;-34
2022/06/27 09:26:38;;;;;;;22.90;4.32;;;;;;;27.63;29.63;96793.06;5113379;28;20100;-35
2022/06/27 09:29:04;;;;;;;22.48;4.00;;;;;;;27.51;29.23;96802.88;5113464;28;20088;-35
2022/06/27 09:31:42;;;;;;;24.67;4.40;;;;;;;27.59;29.68;96805.78;5098652;28;20020;-35
2022/06/27 09:34:23;;;;;;;13.80;3.38;;;;;;;27.68;29.10;96788.69;5119911;28;20023;-35
2022/06/27 09:36:59;;;;;;;21.13;3.83;;;;;;;27.59;29.50;96791.88;5111769;28;20031;-35
2022/06/27 09:39:35;;;;;;;21.17;4.05;;;;;;;27.66;29.32;96783.66;5111500;28;20035;-36
2022/06/27 09:42:03;;;;;;;22.88;3.83;;;;;;;27.64;28.97;96780.63;5114298;28;20496;-35
2022/06/27 09:44:38;;;;;;;18.25;3.25;;;;;;;27.65;29.49;96773.03;5115218;28;20031;-35
2022/06/27 09:47:13;;;;;;;25.77;4.28;;;;;;;27.75;29.27;96760.19;5115393;28;20023;-35
2022/06/27 09:49:41;;;;;;;16.60;3.47;;;;;;;27.65;29.29;96745.16;5115582;27;20476;-34
2022/06/27 09:52:12;;;;;;;15.38;3.35;;;;;;;27.61;29.19;96753.84;5134341;27;20027;-35
2022/06/27 09:54:41;;;;;;;24.55;3.75;;;;;;;27.59;29.46;96758.44;5135753;27;20027;-35
2022/06/27 09:57:09;;;;;;;18.50;3.42;;;;;;;27.52;29.44;96743.84;5134868;27;20114;-35
2022/06/27 09:59:36;;;;;;;23.80;3.67;;;;;;;27.52;29.18;96732.69;5135608;27;20463;-35
2022/06/27 10:02:04;;;;;;;15.15;3.85;;;;;;;27.47;29.33;96733.53;5135385;27;20462;-36
2022/06/27 10:04:30;;;;;;;21.85;4.07;;;;;;;27.52;29.58;96737.50;5135749;27;20102;-35
2022/06/27 10:06:58;;;;;;;20.38;3.75;;;;;;;27.65;29.04;96739.59;5134128;27;20103;-35
2022/06/27 10:09:25;;;;;;;19.90;4.63;;;;;;;27.61;28.85;96761.44;5134947;27;20023;-36
2022/06/27 10:12:27;;;;;;;19.55;3.53;;;;;;;27.62;29.47;96769.28;5135102;27;20031;-35
2022/06/27 10:15:10;;;;;;;20.55;3.75;;;;;;;27.65;29.50;96773.78;5115315;27;20100;-35
2022/06/27 10:17:45;;;;;;;15.40;3.85;;;;;;;27.56;28.70;96767.88;5135418;27;20505;-35
2022/06/27 10:20:26;;;;;;;26.90;3.72;;;;;;;27.61;29.22;96755.88;5132926;27;20042;-35
2022/06/27 10:23:31;;;;;;;11.35;3.08;;;;;;;27.68;28.74;96755.25;5114750;28;20027;-35
2022/06/27 10:25:57;;;;;;;16.40;3.25;;;;;;;27.70;28.95;96730.38;5114749;28;20031;-35
2022/06/27 10:28:23;;;;;;;23.92;3.80;;;;;;;27.71;28.60;96727.06;5112989;28;20031;-35
2022/06/27 10:30:53;;;;;;;20.10;3.70;;;;;;;27.71;28.47;96740.25;5114565;28;20138;-35
2022/06/27 10:33:22;;;;;;;17.65;3.92;;;;;;;27.63;28.75;96719.88;5114219;28;20032;-35
2022/06/27 10:36:02;;;;;;;17.00;3.53;;;;;;;27.68;29.24;96727.41;5095839;28;20088;-35
2022/06/27 10:38:31;;;;;;;18.38;3.92;;;;;;;27.70;29.04;96722.00;5094090;28;20032;-35
2022/06/27 10:40:58;;;;;;;13.43;3.60;;;;;;;27.70;28.87;96714.41;5095153;28;20035;-35
2022/06/27 10:43:36;;;;;;;18.85;4.00;;;;;;;27.79;28.87;96710.47;5095242;28;20384;-35
2022/06/27 10:46:11;;;;;;;18.98;4.68;;;;;;;27.89;28.70;96717.88;5095092;28;20028;-35
2022/06/27 10:48:42;;;;;;;18.13;3.92;;;;;;;27.90;28.55;96726.97;5094780;28;20115;-36
2022/06/27 10:51:28;;;;;;;20.52;4.68;;;;;;;27.96;28.71;96712.91;5094720;28;20054;-35
2022/06/27 10:54:05;;;;;;;23.85;4.82;;;;;;;27.81;29.02;96713.47;5093157;28;20028;-35
2022/06/27 10:56:53;;;;;;;16.95;4.05;;;;;;;27.86;29.03;96732.88;5095117;28;20026;-35
2022/06/27 10:59:18;;;;;;;16.95;4.10;;;;;;;27.90;29.38;96740.91;5095120;28;20044;-35
2022/06/27 11:01:50;;;;;;;18.63;4.28;;;;;;;27.94;29.15;96737.81;5094946;28;20081;-35
2022/06/27 11:04:28;;;;;;;19.48;3.92;;;;;;;27.92;29.38;96729.22;5095251;28;20381;-35
2022/06/27 11:06:56;;;;;;;24.02;4.13;;;;;;;27.92;29.25;96716.03;5094855;28;20461;-34
2022/06/27 11:09:46;;;;;;;16.13;3.55;;;;;;;27.84;29.40;96734.69;5094558;28;20071;-35
2022/06/27 11:12:14;;;;;;;20.38;3.95;;;;;;;27.90;29.13;96724.19;5094760;28;20031;-35
2022/06/27 11:14:48;;;;;;;17.25;4.47;;;;;;;27.95;29.21;96740.03;5094402;28;20020;-35
2022/06/27 11:17:33;;;;;;;21.38;4.22;;;;;;;27.94;29.49;96737.81;5093405;28;20180;-35
2022/06/27 11:20:16;;;;;;;17.77;4.10;;;;;;;27.85;29.59;96739.72;5094797;28;20020;-35
2022/06/27 11:22:48;;;;;;;16.05;3.75;;;;;;;27.83;29.51;96708.09;5094734;28;20043;-36
2022/06/27 11:25:15;;;;;;;19.75;4.22;;;;;;;27.87;29.30;96719.69;5094587;28;20032;-35
2022/06/27 11:27:50;;;;;;;27.33;4.13;;;;;;;27.77;29.51;96701.88;5094043;28;20051;-34
2022/06/27 11:33:15;;;;;;;18.05;5.47;;;;;;;27.69;29.23;96689.88;5094279;28;20089;-35
2022/06/27 11:35:43;;;;;;;23.23;4.15;;;;;;;27.72;29.49;96699.94;5094273;28;20020;-35
2022/06/27 11:38:08;;;;;;;20.42;3.97;;;;;;;27.70;29.57;96719.97;5094364;28;20020;-36
2022/06/27 11:40:34;;;;;;;16.52;4.63;;;;;;;27.75;29.43;96715.59;5093585;28;20453;-35
2022/06/27 11:43:00;;;;;;;20.48;4.50;;;;;;;27.72;28.95;96717.41;5094002;28;20020;-35